Time,TemperatureF,DewpointF,PressureIn,WindDirection,WindDirectionDegrees,WindSpeedMPH,WindSpeedGustMPH,Humidity,HourlyPrecipIn,Conditions,Clouds,dailyrainin,SoftwareType,DateUTC
2013-02-16 00:01:00,45.7,31.3,29.89,NNW,342,5.0,5.0,57,0.00,,,0.00,Wunderground v.1.13,2013-02-16 05:01:00,
2013-02-16 00:10:00,45.2,30.9,29.89,NW,313,5.0,5.0,57,0.00,,,0.00,Wunderground v.1.13,2013-02-16 05:10:00,
2013-02-16 00:21:00,45.1,30.3,29.89,NW,311,6.0,6.0,56,0.00,,,0.00,Wunderground v.1.13,2013-02-16 05:21:00,
2013-02-16 00:30:00,44.6,29.9,29.89,NNW,344,5.0,5.0,56,0.00,,,0.00,Wunderground v.1.13,2013-02-16 05:30:00,
2013-02-16 00:40:00,44.2,29.9,29.89,NW,315,4.0,7.0,57,0.00,,,0.00,Wunderground v.1.13,2013-02-16 05:40:00,
2013-02-16 00:51:00,43.8,29.5,29.89,NW,306,4.0,7.0,57,0.00,,,0.00,Wunderground v.1.13,2013-02-16 05:51:00,
2013-02-16 01:01:00,43.3,29.5,29.89,NNW,338,4.0,8.0,58,0.00,,,0.00,Wunderground v.1.13,2013-02-16 06:01:00,
2013-02-16 01:20:00,42.9,29.5,29.89,NNW,338,3.0,8.0,59,0.00,,,0.00,Wunderground v.1.13,2013-02-16 06:20:00,
2013-02-16 01:31:00,42.3,29.8,29.88,North,5,2.0,2.0,61,0.00,,,0.00,Wunderground v.1.13,2013-02-16 06:31:00,
2013-02-16 01:40:00,41.9,29.8,29.88,North,351,2.0,2.0,62,0.00,,,0.00,Wunderground v.1.13,2013-02-16 06:40:00,
2013-02-16 01:50:00,41.5,29.8,29.88,North,350,2.0,3.0,63,0.00,,,0.00,Wunderground v.1.13,2013-02-16 06:50:00,
2013-02-16 02:10:00,41.2,29.5,29.88,North,0,1.0,4.0,63,0.00,,,0.00,Wunderground v.1.13,2013-02-16 07:10:00,
2013-02-16 02:20:00,41.2,29.9,29.88,North,0,2.0,4.0,64,0.00,,,0.00,Wunderground v.1.13,2013-02-16 07:20:00,
2013-02-16 02:40:00,40.8,29.6,29.88,North,0,2.0,3.0,64,0.00,,,0.00,Wunderground v.1.13,2013-02-16 07:40:00,
2013-02-16 02:50:00,40.9,30.4,29.87,North,0,3.0,5.0,66,0.00,,,0.00,Wunderground v.1.13,2013-02-16 07:50:00,
2013-02-16 03:00:00,40.9,30.4,29.87,NNW,338,2.0,5.0,66,0.00,,,0.00,Wunderground v.1.13,2013-02-16 08:00:00,
2013-02-16 03:10:00,40.9,30.4,29.87,NNW,338,3.0,7.0,66,0.00,,,0.00,Wunderground v.1.13,2013-02-16 08:10:00,
2013-02-16 03:20:00,41.1,30.6,29.88,NNW,331,1.0,1.0,66,0.00,,,0.00,Wunderground v.1.13,2013-02-16 08:20:00,
2013-02-16 03:30:00,40.9,30.4,29.87,NNW,338,0.0,4.0,66,0.00,,,0.00,Wunderground v.1.13,2013-02-16 08:30:00,
2013-02-16 03:40:00,40.9,30.8,29.87,NNW,338,0.0,3.0,67,0.00,,,0.00,Wunderground v.1.13,2013-02-16 08:40:00,
2013-02-16 03:50:00,40.8,30.7,29.86,NNW,338,1.0,3.0,67,0.00,,,0.00,Wunderground v.1.13,2013-02-16 08:50:00,
2013-02-16 04:01:00,40.9,30.4,29.86,NNW,331,2.0,2.0,66,0.00,,,0.00,Wunderground v.1.13,2013-02-16 09:01:00,
2013-02-16 04:20:00,40.9,30.4,29.86,NNE,23,2.0,4.0,66,0.00,,,0.00,Wunderground v.1.13,2013-02-16 09:20:00,
2013-02-16 04:30:00,40.8,30.3,29.86,NNE,17,0.0,2.0,66,0.00,,,0.00,Wunderground v.1.13,2013-02-16 09:30:00,
2013-02-16 04:40:00,40.9,29.7,29.87,NE,45,1.0,3.0,64,0.00,,,0.00,Wunderground v.1.13,2013-02-16 09:40:00,
2013-02-16 04:50:00,40.9,28.1,29.87,ENE,64,2.0,2.0,60,0.00,,,0.00,Wunderground v.1.13,2013-02-16 09:50:00,
2013-02-16 05:00:00,40.8,28.0,29.87,ENE,69,1.0,1.0,60,0.00,,,0.00,Wunderground v.1.13,2013-02-16 10:00:00,
2013-02-16 05:10:00,40.8,26.3,29.87,NNE,23,3.0,6.0,56,0.00,,,0.00,Wunderground v.1.13,2013-02-16 10:10:00,
2013-02-16 05:20:00,40.8,27.2,29.86,NNE,23,2.0,3.0,58,0.00,,,0.00,Wunderground v.1.13,2013-02-16 10:20:00,
2013-02-16 05:31:00,40.6,27.0,29.87,NNE,27,0.0,0.0,58,0.00,,,0.00,Wunderground v.1.13,2013-02-16 10:31:00,
2013-02-16 05:50:00,40.2,29.7,29.87,NE,45,0.0,3.0,66,0.00,,,0.00,Wunderground v.1.13,2013-02-16 10:50:00,
2013-02-16 06:00:00,39.2,30.9,29.87,NNE,26,2.0,3.0,72,0.00,,,0.00,Wunderground v.1.13,2013-02-16 11:00:00,
2013-02-16 06:11:00,38.6,31.4,29.88,ENE,59,2.0,2.0,75,0.00,,,0.00,Wunderground v.1.13,2013-02-16 11:11:00,
2013-02-16 06:21:00,38.2,32.3,29.88,ENE,68,1.0,3.0,79,0.00,,,0.00,Wunderground v.1.13,2013-02-16 11:21:00,
2013-02-16 06:31:00,37.8,32.2,29.88,ENE,68,0.0,3.0,80,0.00,,,0.00,Wunderground v.1.13,2013-02-16 11:31:00,
2013-02-16 06:50:00,37.3,32.6,29.88,ENE,68,1.0,2.0,83,0.00,,,0.00,Wunderground v.1.13,2013-02-16 11:50:00,
2013-02-16 07:00:00,36.3,32.2,29.88,ENE,68,1.0,5.0,85,0.00,,,0.00,Wunderground v.1.13,2013-02-16 12:00:00,
2013-02-16 07:10:00,36.0,32.2,29.88,NNE,23,1.0,4.0,86,0.00,,,0.00,Wunderground v.1.13,2013-02-16 12:10:00,
2013-02-16 07:30:00,35.8,32.0,29.87,East,90,0.0,1.0,86,0.00,,,0.00,Wunderground v.1.13,2013-02-16 12:30:00,
2013-02-16 07:41:00,35.6,32.1,29.87,ENE,60,1.0,1.0,87,0.00,,,0.00,Wunderground v.1.13,2013-02-16 12:41:00,
2013-02-16 07:50:00,35.8,32.3,29.87,ENE,58,1.0,1.0,87,0.00,,,0.00,Wunderground v.1.13,2013-02-16 12:50:00,
2013-02-16 08:00:00,35.8,32.3,29.87,ENE,58,0.0,0.0,87,0.00,,,0.00,Wunderground v.1.13,2013-02-16 13:00:00,
2013-02-16 08:11:00,35.9,32.7,29.87,ENE,59,0.0,0.0,88,0.00,,,0.00,Wunderground v.1.13,2013-02-16 13:11:00,
2013-02-16 08:21:00,35.9,32.7,29.87,ESE,106,0.0,0.0,88,0.00,,,0.00,Wunderground v.1.13,2013-02-16 13:21:00,
2013-02-16 08:30:00,36.2,33.3,29.87,East,98,0.0,0.0,89,0.00,,,0.00,Wunderground v.1.13,2013-02-16 13:30:00,
2013-02-16 08:40:00,36.0,33.1,29.87,SE,134,0.0,0.0,89,0.00,,,0.00,Wunderground v.1.13,2013-02-16 13:40:00,
2013-02-16 09:00:00,36.2,33.3,29.88,SE,135,0.0,1.0,89,0.00,,,0.00,Wunderground v.1.13,2013-02-16 14:00:00,
2013-02-16 09:20:00,36.3,33.4,29.87,N/A,-737280,0.0,0.0,89,0.00,,,0.00,Wunderground v.1.13,2013-02-16 14:20:00,
2013-02-16 09:30:00,36.8,33.6,29.87,SE,134,0.0,0.0,88,0.00,,,0.00,Wunderground v.1.13,2013-02-16 14:30:00,
2013-02-16 09:40:00,36.8,33.3,29.87,SE,135,0.0,3.0,87,0.00,,,0.00,Wunderground v.1.13,2013-02-16 14:40:00,
2013-02-16 09:50:00,37.0,33.5,29.86,East,82,0.0,0.0,87,0.00,,,0.00,Wunderground v.1.13,2013-02-16 14:50:00,
2013-02-16 10:10:00,37.0,32.9,29.86,SE,135,0.0,3.0,85,0.00,,,0.00,Wunderground v.1.13,2013-02-16 15:10:00,
2013-02-16 10:20:00,36.9,32.5,29.86,ENE,62,0.0,0.0,84,0.00,,,0.00,Wunderground v.1.13,2013-02-16 15:20:00,
2013-02-16 10:30:00,37.2,32.5,29.86,N/A,-737280,0.0,0.0,83,0.00,,,0.00,Wunderground v.1.13,2013-02-16 15:30:00,
2013-02-16 10:40:00,37.3,32.0,29.86,NE,44,0.0,3.0,81,0.00,,,0.00,Wunderground v.1.13,2013-02-16 15:40:00,
2013-02-16 10:50:00,37.3,32.0,29.85,NE,53,1.0,1.0,81,0.00,,,0.00,Wunderground v.1.13,2013-02-16 15:50:00,
2013-02-16 11:00:00,37.8,32.2,29.86,SE,135,0.0,2.0,80,0.00,,,0.00,Wunderground v.1.13,2013-02-16 16:00:00,
2013-02-16 11:11:00,37.8,30.9,29.86,SE,144,0.0,0.0,76,0.00,,,0.00,Wunderground v.1.13,2013-02-16 16:11:00,
2013-02-16 11:21:00,37.8,30.3,29.86,SE,141,0.0,0.0,74,0.00,,,0.00,Wunderground v.1.13,2013-02-16 16:21:00,
2013-02-16 11:30:00,38.2,31.0,29.86,NNE,25,1.0,2.0,75,0.00,,,0.00,Wunderground v.1.13,2013-02-16 16:30:00,
2013-02-16 11:40:00,38.3,30.7,29.84,ENE,68,0.0,2.0,74,0.00,,,0.00,Wunderground v.1.13,2013-02-16 16:40:00,
2013-02-16 11:51:00,38.5,30.9,29.83,ESE,111,0.0,2.0,74,0.00,,,0.00,Wunderground v.1.13,2013-02-16 16:51:00,
2013-02-16 12:00:00,38.6,30.7,29.83,SSE,155,1.0,1.0,73,0.00,,,0.00,Wunderground v.1.13,2013-02-16 17:00:00,
2013-02-16 12:11:00,38.6,30.4,29.84,SE,137,1.0,1.0,72,0.00,,,0.00,Wunderground v.1.13,2013-02-16 17:11:00,
2013-02-16 12:20:00,39.5,31.2,29.83,SSE,151,0.0,1.0,72,0.00,,,0.00,Wunderground v.1.13,2013-02-16 17:20:00,
2013-02-16 12:30:00,39.6,30.6,29.82,SSE,158,0.0,1.0,70,0.00,,,0.00,Wunderground v.1.13,2013-02-16 17:30:00,
2013-02-16 12:40:00,39.5,30.5,29.82,SE,135,0.0,4.0,70,0.00,,,0.00,Wunderground v.1.13,2013-02-16 17:40:00,
2013-02-16 12:50:00,39.5,30.9,29.81,SSE,164,1.0,1.0,71,0.00,,,0.00,Wunderground v.1.13,2013-02-16 17:50:00,
2013-02-16 13:00:00,40.1,30.7,29.81,East,80,1.0,3.0,69,0.00,,,0.00,Wunderground v.1.13,2013-02-16 18:00:00,
2013-02-16 13:10:00,39.9,30.9,29.80,SSE,158,2.0,6.0,70,0.00,,,0.00,Wunderground v.1.13,2013-02-16 18:10:00,
2013-02-16 13:21:00,40.5,30.8,29.78,SSW,196,2.0,2.0,68,0.00,,,0.00,Wunderground v.1.13,2013-02-16 18:21:00,
2013-02-16 13:31:00,40.3,29.5,29.78,ENE,71,1.0,1.0,65,0.00,,,0.00,Wunderground v.1.13,2013-02-16 18:31:00,
2013-02-16 13:50:00,40.2,29.7,29.78,SSE,158,1.0,4.0,66,0.00,,,0.00,Wunderground v.1.13,2013-02-16 18:50:00,
2013-02-16 14:00:00,41.3,30.4,29.76,East,90,1.0,5.0,65,0.00,,,0.00,Wunderground v.1.13,2013-02-16 19:00:00,
2013-02-16 14:11:00,41.2,29.2,29.76,NE,50,2.0,3.0,62,0.00,,,0.00,Wunderground v.1.13,2013-02-16 19:11:00,
2013-02-16 14:20:00,41.1,29.8,29.75,South,175,1.0,1.0,64,0.00,,,0.00,Wunderground v.1.13,2013-02-16 19:20:00,
2013-02-16 14:30:00,40.5,30.0,29.75,SSE,161,1.0,2.0,66,0.00,,,0.00,Wunderground v.1.13,2013-02-16 19:30:00,
2013-02-16 14:40:00,39.9,29.1,29.75,SSW,196,2.0,2.0,65,0.00,,,0.00,Wunderground v.1.13,2013-02-16 19:40:00,
2013-02-16 14:50:00,39.1,31.5,29.75,WNW,293,6.0,11.0,74,0.00,,,0.00,Wunderground v.1.13,2013-02-16 19:50:00,
2013-02-16 15:00:00,34.9,30.6,29.77,NW,315,5.0,9.0,84,0.00,,,0.00,Wunderground v.1.13,2013-02-16 20:00:00,
2013-02-16 15:11:00,33.2,30.0,29.77,WNW,292,4.0,6.0,88,0.00,,,0.00,Wunderground v.1.13,2013-02-16 20:11:00,
2013-02-16 15:30:00,32.8,30.2,29.77,NNW,338,6.0,10.0,90,0.00,,,0.00,Wunderground v.1.13,2013-02-16 20:30:00,
2013-02-16 15:41:00,32.5,30.4,29.78,NNW,342,6.0,6.0,92,0.00,,,0.00,Wunderground v.1.13,2013-02-16 20:41:00,
2013-02-16 15:50:00,32.4,30.3,29.78,NNW,334,5.0,6.0,92,0.00,,,0.00,Wunderground v.1.13,2013-02-16 20:50:00,
2013-02-16 16:10:00,32.4,30.3,29.78,NNW,338,4.0,7.0,92,0.00,,,0.00,Wunderground v.1.13,2013-02-16 21:10:00,
2013-02-16 16:20:00,32.1,30.0,29.79,NW,322,5.0,5.0,92,0.00,,,0.00,Wunderground v.1.13,2013-02-16 21:20:00,
2013-02-16 16:30:00,31.9,29.8,29.79,North,0,3.0,7.0,92,0.00,,,0.00,Wunderground v.1.13,2013-02-16 21:30:00,
2013-02-16 16:41:00,32.1,30.0,29.79,NNW,338,3.0,3.0,92,0.00,,,0.00,Wunderground v.1.13,2013-02-16 21:41:00,
2013-02-16 17:00:00,32.2,30.1,29.79,NNW,338,0.0,2.0,92,0.00,,,0.00,Wunderground v.1.13,2013-02-16 22:00:00,
2013-02-16 17:10:00,32.4,30.6,29.80,NNW,338,0.0,0.0,93,0.00,,,0.00,Wunderground v.1.13,2013-02-16 22:10:00,
2013-02-16 17:20:00,32.4,30.6,29.81,NNW,338,0.0,0.0,93,0.00,,,0.00,Wunderground v.1.13,2013-02-16 22:20:00,
2013-02-16 17:30:00,32.2,30.1,29.81,NW,312,1.0,1.0,92,0.00,,,0.00,Wunderground v.1.13,2013-02-16 22:30:00,
2013-02-16 17:41:00,32.2,30.1,29.82,North,355,2.0,3.0,92,0.00,,,0.00,Wunderground v.1.13,2013-02-16 22:41:00,
2013-02-16 17:50:00,32.1,29.5,29.82,NNE,22,3.0,5.0,90,0.00,,,0.00,Wunderground v.1.13,2013-02-16 22:50:00,
2013-02-16 18:00:00,32.7,29.3,29.82,NNE,22,3.0,3.0,87,0.00,,,0.00,Wunderground v.1.13,2013-02-16 23:00:00,
2013-02-16 18:10:00,32.7,28.7,29.82,NNE,15,3.0,3.0,85,0.00,,,0.00,Wunderground v.1.13,2013-02-16 23:10:00,
2013-02-16 18:20:00,32.5,28.5,29.83,NNE,13,2.0,3.0,85,0.00,,,0.00,Wunderground v.1.13,2013-02-16 23:20:00,
2013-02-16 18:30:00,32.5,28.8,29.83,North,349,2.0,2.0,86,0.00,,,0.00,Wunderground v.1.13,2013-02-16 23:30:00,
2013-02-16 18:40:00,32.4,28.7,29.84,NNW,327,1.0,1.0,86,0.00,,,0.00,Wunderground v.1.13,2013-02-16 23:40:00,
2013-02-16 18:51:00,32.2,28.8,29.85,NNW,327,0.0,0.0,87,0.00,,,0.00,Wunderground v.1.13,2013-02-16 23:51:00,
2013-02-16 19:01:00,31.9,28.2,29.86,NNW,327,0.0,2.0,86,0.00,,,0.00,Wunderground v.1.13,2013-02-17 00:01:00,
2013-02-16 19:20:00,31.8,26.0,29.86,NW,315,4.0,8.0,79,0.00,,,0.00,Wunderground v.1.13,2013-02-17 00:20:00,
2013-02-16 19:30:00,31.2,24.8,29.87,NW,317,2.0,2.0,77,0.00,,,0.00,Wunderground v.1.13,2013-02-17 00:30:00,
2013-02-16 19:40:00,30.7,24.0,29.87,NW,315,3.0,9.0,76,0.00,,,0.00,Wunderground v.1.13,2013-02-17 00:40:00,
2013-02-16 19:50:00,30.9,23.3,29.89,NNW,338,4.0,10.0,73,0.00,,,0.00,Wunderground v.1.13,2013-02-17 00:50:00,
2013-02-16 20:00:00,30.9,22.6,29.89,NW,315,4.0,12.0,71,0.00,,,0.00,Wunderground v.1.13,2013-02-17 01:00:00,
2013-02-16 20:10:00,30.6,23.0,29.89,WNW,293,2.0,5.0,73,0.00,,,0.00,Wunderground v.1.13,2013-02-17 01:10:00,
2013-02-16 20:21:00,30.4,22.8,29.89,NW,319,2.0,2.0,73,0.00,,,0.00,Wunderground v.1.13,2013-02-17 01:21:00,
2013-02-16 20:30:00,30.1,22.5,29.89,NNW,330,1.0,1.0,73,0.00,,,0.00,Wunderground v.1.13,2013-02-17 01:30:00,
2013-02-16 20:40:00,30.0,22.7,29.90,NW,314,1.0,1.0,74,0.00,,,0.00,Wunderground v.1.13,2013-02-17 01:40:00,
2013-02-16 20:50:00,29.8,21.9,29.90,WNW,293,2.0,7.0,72,0.00,,,0.00,Wunderground v.1.13,2013-02-17 01:50:00,
2013-02-16 21:00:00,29.7,22.1,29.90,WNW,302,2.0,3.0,73,0.00,,,0.00,Wunderground v.1.13,2013-02-17 02:00:00,
2013-02-16 21:11:00,29.5,23.2,29.91,NW,305,0.0,0.0,77,0.00,,,0.00,Wunderground v.1.13,2013-02-17 02:11:00,
2013-02-16 21:20:00,29.4,23.7,29.92,NW,305,0.0,1.0,79,0.00,,,0.00,Wunderground v.1.13,2013-02-17 02:20:00,
2013-02-16 21:30:00,29.1,23.7,29.92,WNW,303,1.0,1.0,80,0.00,,,0.00,Wunderground v.1.13,2013-02-17 02:30:00,
2013-02-16 21:40:00,29.1,23.4,29.92,WNW,303,1.0,1.0,79,0.00,,,0.00,Wunderground v.1.13,2013-02-17 02:40:00,
2013-02-16 21:51:00,29.0,23.6,29.93,WNW,303,1.0,1.0,80,0.00,,,0.00,Wunderground v.1.13,2013-02-17 02:51:00,
2013-02-16 22:10:00,28.7,23.0,29.94,WNW,293,1.0,4.0,79,0.00,,,0.00,Wunderground v.1.13,2013-02-17 03:10:00,
2013-02-16 22:20:00,27.8,23.3,29.94,NW,304,0.0,0.0,83,0.00,,,0.00,Wunderground v.1.13,2013-02-17 03:20:00,
2013-02-16 22:30:00,27.5,23.3,29.94,N/A,-737280,0.0,0.0,84,0.00,,,0.00,Wunderground v.1.13,2013-02-17 03:30:00,
2013-02-16 22:40:00,27.0,22.8,29.94,N/A,-737280,0.0,0.0,84,0.00,,,0.00,Wunderground v.1.13,2013-02-17 03:40:00,
2013-02-16 22:50:00,26.7,22.5,29.94,NW,315,1.0,4.0,84,0.00,,,0.00,Wunderground v.1.13,2013-02-17 03:50:00,
2013-02-16 23:00:00,26.6,21.8,29.95,NW,315,0.0,2.0,82,0.00,,,0.00,Wunderground v.1.13,2013-02-17 04:00:00,
2013-02-16 23:20:00,26.3,21.3,29.95,NW,315,1.0,4.0,81,0.00,,,0.00,Wunderground v.1.13,2013-02-17 04:20:00,
2013-02-16 23:30:00,25.8,20.8,29.95,NW,318,0.0,0.0,81,0.00,,,0.00,Wunderground v.1.13,2013-02-17 04:30:00,
2013-02-16 23:41:00,25.7,21.0,29.95,NNW,344,1.0,3.0,82,0.00,,,0.00,Wunderground v.1.13,2013-02-17 04:41:00,
2013-02-16 23:50:00,25.7,21.0,29.96,NW,311,1.0,2.0,82,0.00,,,0.00,Wunderground v.1.13,2013-02-17 04:50:00,